createdAt,value
2018-04-30T00:01:07.184Z,58.84
2018-04-30T00:03:34.312Z,58.79
2018-04-30T00:06:00.716Z,58.83
2018-04-30T00:08:27.457Z,58.79
2018-04-30T00:10:53.910Z,59.23
2018-04-30T00:13:21.052Z,59.27
2018-04-30T00:15:47.581Z,59.27
2018-04-30T00:18:15.088Z,59.48
2018-04-30T00:20:42.195Z,59.46
2018-04-30T00:23:08.660Z,59.27
2018-04-30T00:25:35.036Z,59.01
2018-04-30T00:28:01.421Z,59.17
2018-04-30T00:30:27.809Z,58.42
2018-04-30T00:32:54.179Z,58.19
2018-04-30T00:35:20.647Z,57.91
2018-04-30T00:37:47.767Z,57.81
2018-04-30T00:40:16.023Z,57.89
2018-04-30T00:42:42.398Z,57.22
2018-04-30T00:45:09.515Z,57.42
2018-04-30T00:47:35.905Z,57.58
2018-04-30T00:50:02.328Z,57.38
2018-04-30T00:52:28.752Z,57.20
2018-04-30T00:55:01.014Z,57.20
2018-04-30T00:57:28.212Z,56.96
2018-04-30T00:59:54.594Z,56.51
2018-04-30T01:02:21.686Z,56.51
2018-04-30T01:04:48.434Z,56.26
2018-04-30T01:07:14.815Z,55.77
2018-04-30T01:09:42.044Z,55.51
2018-04-30T01:12:08.489Z,55.12
2018-04-30T01:14:37.035Z,55.05
2018-04-30T01:17:03.432Z,54.97
2018-04-30T01:19:29.815Z,54.84
2018-04-30T01:21:56.284Z,55.11
2018-04-30T01:24:23.426Z,54.76
2018-04-30T01:26:50.584Z,54.80
2018-04-30T01:29:17.688Z,54.70
2018-04-30T01:31:44.154Z,54.80
2018-04-30T01:34:11.326Z,54.08
2018-04-30T01:36:39.952Z,54.36
2018-04-30T01:39:07.225Z,53.86
2018-04-30T01:41:34.010Z,53.16
2018-04-30T01:44:00.444Z,52.63
2018-04-30T01:46:26.814Z,52.17
2018-04-30T01:48:53.609Z,52.14
2018-04-30T01:51:20.049Z,51.28
2018-04-30T01:53:46.413Z,50.72
2018-04-30T01:56:12.814Z,50.45
2018-04-30T01:58:39.192Z,50.06
2018-04-30T02:01:05.545Z,49.68
2018-04-30T02:03:32.698Z,49.65
2018-04-30T02:06:00.186Z,50.17
2018-04-30T02:08:26.556Z,49.76
2018-04-30T02:10:53.185Z,49.83
2018-04-30T02:13:19.589Z,49.46
2018-04-30T02:15:45.956Z,49.65
2018-04-30T02:18:13.150Z,49.74
2018-04-30T02:20:40.263Z,50.39
2018-04-30T02:23:07.406Z,50.18
2018-04-30T02:25:33.808Z,50.20
2018-04-30T02:28:00.165Z,48.93
2018-04-30T02:30:26.532Z,49.29
2018-04-30T02:32:54.111Z,49.69
2018-04-30T02:35:21.243Z,49.76
2018-04-30T02:37:48.353Z,49.96
2018-04-30T02:40:14.784Z,50.11
2018-04-30T02:42:41.258Z,50.21
2018-04-30T02:45:07.657Z,50.06
2018-04-30T02:47:34.803Z,51.12
2018-04-30T02:50:01.167Z,51.35
2018-04-30T02:52:27.568Z,51.63
2018-04-30T02:54:54.088Z,52.71
2018-04-30T02:57:20.486Z,53.15
2018-04-30T02:59:46.949Z,52.38
2018-04-30T03:02:13.349Z,52.46
2018-04-30T03:04:40.445Z,53.85
2018-04-30T03:07:06.952Z,52.22
2018-04-30T03:09:33.414Z,52.76
2018-04-30T03:11:59.833Z,52.48
2018-04-30T03:14:26.177Z,52.21
2018-04-30T03:16:52.621Z,52.95
2018-04-30T03:19:18.991Z,53.02
2018-04-30T03:21:46.095Z,52.20
2018-04-30T03:24:12.549Z,52.32
2018-04-30T03:26:38.966Z,52.91
2018-04-30T03:29:05.372Z,53.04
2018-04-30T03:31:32.305Z,53.32
2018-04-30T03:33:58.991Z,54.11
2018-04-30T03:36:25.380Z,54.01
2018-04-30T03:38:51.759Z,54.41
2018-04-30T03:41:18.198Z,55.56
2018-04-30T03:43:44.875Z,55.90
2018-04-30T03:46:11.250Z,56.52
2018-04-30T03:48:37.649Z,57.52
2018-04-30T03:51:04.062Z,57.15
2018-04-30T03:53:31.173Z,59.04
2018-04-30T03:55:57.574Z,60.18
2018-04-30T03:58:23.966Z,61.28
2018-04-30T04:01:09.633Z,62.42
2018-04-30T04:03:55.043Z,62.19
2018-04-30T04:06:39.842Z,62.61
2018-04-30T04:09:06.232Z,62.81
2018-04-30T04:11:33.348Z,63.91
2018-04-30T04:13:59.787Z,64.03
2018-04-30T04:16:26.271Z,64.33
2018-04-30T04:18:52.639Z,64.47
2018-04-30T04:21:19.072Z,64.04
2018-04-30T04:23:45.416Z,63.55
2018-04-30T04:26:11.911Z,64.29
2018-04-30T04:28:38.298Z,65.41
2018-04-30T04:31:05.741Z,61.94
2018-04-30T04:33:32.236Z,64.22
2018-04-30T04:35:58.844Z,62.98
2018-04-30T04:38:25.682Z,61.79
2018-04-30T04:40:52.893Z,62.77
2018-04-30T04:43:19.347Z,64.15
2018-04-30T04:45:47.135Z,63.65
2018-04-30T04:48:13.695Z,63.87
2018-04-30T04:50:40.174Z,61.67
2018-04-30T04:53:07.328Z,61.38
2018-04-30T04:55:34.539Z,62.94
2018-04-30T04:58:00.944Z,64.12
2018-04-30T05:00:27.435Z,61.71
2018-04-30T05:02:55.373Z,61.24
2018-04-30T05:05:21.756Z,62.15
2018-04-30T05:07:48.898Z,61.12
2018-04-30T05:10:16.129Z,59.68
2018-04-30T05:12:42.509Z,59.81
2018-04-30T05:15:08.921Z,59.32
2018-04-30T05:17:36.294Z,59.16
2018-04-30T05:20:02.745Z,57.74
2018-04-30T05:22:29.463Z,58.18
2018-04-30T05:24:55.845Z,57.57
2018-04-30T05:27:23.041Z,55.65
2018-04-30T05:29:50.221Z,57.54
2018-04-30T05:32:16.579Z,57.62
2018-04-30T05:34:42.983Z,57.08
2018-04-30T05:37:09.391Z,57.72
2018-04-30T05:39:36.523Z,57.04
2018-04-30T05:42:03.727Z,58.50
2018-04-30T05:44:30.112Z,56.88
2018-04-30T05:46:57.309Z,58.38
2018-04-30T05:49:23.671Z,59.39
2018-04-30T05:51:50.091Z,58.10
2018-04-30T05:54:16.770Z,58.39
2018-04-30T05:56:43.936Z,57.99
2018-04-30T05:59:10.352Z,57.20
2018-04-30T06:01:37.577Z,57.13
2018-04-30T06:04:05.434Z,55.80
2018-04-30T06:06:31.850Z,56.06
2018-04-30T06:08:58.232Z,56.14
2018-04-30T06:11:25.349Z,55.96
2018-04-30T06:13:52.026Z,52.33
2018-04-30T06:16:19.273Z,53.06
2018-04-30T06:18:46.447Z,53.85
2018-04-30T06:21:12.983Z,53.61
2018-04-30T06:23:39.409Z,51.82
2018-04-30T06:26:05.815Z,51.88
2018-04-30T06:28:33.079Z,50.76
2018-04-30T06:31:00.208Z,51.20
2018-04-30T06:33:27.360Z,49.67
2018-04-30T06:35:54.581Z,48.94
2018-04-30T06:38:21.006Z,49.03
2018-04-30T06:40:47.433Z,48.76
2018-04-30T06:43:13.819Z,47.16
2018-04-30T06:45:41.024Z,48.61
2018-04-30T06:48:07.719Z,48.41
2018-04-30T06:50:34.226Z,49.47
2018-04-30T06:53:00.670Z,50.50
2018-04-30T06:55:27.838Z,51.61
2018-04-30T06:57:55.043Z,51.29
2018-04-30T07:00:21.500Z,51.00
2018-04-30T07:02:48.654Z,50.36
2018-04-30T07:05:16.069Z,49.87
2018-04-30T07:07:42.540Z,49.78
2018-04-30T07:10:09.242Z,48.88
2018-04-30T07:12:35.619Z,47.88
2018-04-30T07:15:02.832Z,47.89
2018-04-30T07:17:29.212Z,47.89
2018-04-30T07:19:56.382Z,47.26
2018-04-30T07:22:22.886Z,46.78
2018-04-30T07:24:50.053Z,46.51
2018-04-30T07:27:16.490Z,47.17
2018-04-30T07:29:42.892Z,46.36
2018-04-30T07:32:10.042Z,45.33
2018-04-30T07:34:36.490Z,45.06
2018-04-30T07:37:02.906Z,44.43
2018-04-30T07:39:29.328Z,45.15
2018-04-30T07:41:55.724Z,45.02
2018-04-30T07:44:22.202Z,44.66
2018-04-30T07:46:48.653Z,44.11
2018-04-30T07:49:15.913Z,43.48
2018-04-30T07:51:43.373Z,43.51
2018-04-30T07:54:10.474Z,43.29
2018-04-30T07:56:36.871Z,42.42
2018-04-30T07:59:03.310Z,42.37
2018-04-30T08:01:29.708Z,42.33
2018-04-30T08:03:56.941Z,41.70
2018-04-30T08:06:23.356Z,41.30
2018-04-30T08:08:49.778Z,41.34
2018-04-30T08:11:16.328Z,40.74
2018-04-30T08:13:42.753Z,39.70
2018-04-30T08:16:09.213Z,40.92
2018-04-30T08:18:36.376Z,40.53
2018-04-30T08:21:03.550Z,40.85
2018-04-30T08:23:29.956Z,40.34
2018-04-30T08:25:57.107Z,39.92
2018-04-30T08:28:24.408Z,40.30
2018-04-30T08:30:50.868Z,40.03
2018-04-30T08:33:17.233Z,39.61
2018-04-30T08:35:44.434Z,39.13
2018-04-30T08:38:10.866Z,39.27
2018-04-30T08:40:37.304Z,38.83
2018-04-30T08:43:03.814Z,37.52
2018-04-30T08:45:30.252Z,37.28
2018-04-30T08:47:56.712Z,35.78
2018-04-30T08:50:23.128Z,35.16
2018-04-30T08:52:49.779Z,35.31
2018-04-30T08:55:16.312Z,34.95
2018-04-30T08:57:44.432Z,34.42
2018-04-30T09:00:10.890Z,34.01
2018-04-30T09:02:37.316Z,33.42
2018-04-30T09:05:04.999Z,34.05
2018-04-30T09:07:31.703Z,33.77
2018-04-30T09:09:59.450Z,33.23
2018-04-30T09:12:26.788Z,32.89
2018-04-30T09:14:53.300Z,32.75
2018-04-30T09:17:20.488Z,32.19
2018-04-30T09:19:47.639Z,32.37
2018-04-30T09:22:14.787Z,32.85
2018-04-30T09:24:42.013Z,32.11
2018-04-30T09:27:08.466Z,31.62
2018-04-30T09:29:34.873Z,31.64
2018-04-30T09:32:01.557Z,31.28
2018-04-30T09:34:29.056Z,30.88
2018-04-30T09:36:55.691Z,31.47
2018-04-30T09:39:22.086Z,31.03
2018-04-30T09:41:48.739Z,31.11
2018-04-30T09:44:15.128Z,31.62
2018-04-30T09:46:41.525Z,32.34
2018-04-30T09:49:08.001Z,32.05
2018-04-30T09:51:34.411Z,30.78
2018-04-30T09:54:00.819Z,29.87
2018-04-30T09:56:27.413Z,30.45
2018-04-30T09:58:54.572Z,30.18
2018-04-30T10:01:21.033Z,30.21
2018-04-30T10:03:47.519Z,30.85
2018-04-30T10:06:14.668Z,30.47
2018-04-30T10:08:41.864Z,30.24
2018-04-30T10:11:08.513Z,29.37
2018-04-30T10:13:35.213Z,28.51
2018-04-30T10:16:01.670Z,28.81
2018-04-30T10:18:28.117Z,28.52
2018-04-30T10:20:54.649Z,27.68
2018-04-30T10:23:23.909Z,27.28
2018-04-30T10:25:51.165Z,27.78
2018-04-30T10:28:19.294Z,27.50
2018-04-30T10:30:45.769Z,26.70
2018-04-30T10:33:12.223Z,26.96
2018-04-30T10:35:38.671Z,25.76
2018-04-30T10:38:05.106Z,25.81
2018-04-30T10:40:31.584Z,25.81
2018-04-30T10:42:57.947Z,25.66
2018-04-30T10:45:24.781Z,25.74
2018-04-30T10:47:52.027Z,25.17
2018-04-30T10:50:19.252Z,25.95
2018-04-30T10:52:46.429Z,25.38
2018-04-30T10:55:13.690Z,25.09
2018-04-30T10:57:41.903Z,25.20
2018-04-30T11:00:08.290Z,24.96
2018-04-30T11:02:35.516Z,25.40
2018-04-30T11:05:01.949Z,25.66
2018-04-30T11:07:28.327Z,25.01
2018-04-30T11:09:54.817Z,24.46
2018-04-30T11:12:21.251Z,25.28
2018-04-30T11:14:47.921Z,25.11
2018-04-30T11:17:14.308Z,24.67
2018-04-30T11:19:41.203Z,24.70
2018-04-30T11:22:07.568Z,24.05
2018-04-30T11:24:34.613Z,24.52
2018-04-30T11:27:01.036Z,24.93
2018-04-30T11:29:27.417Z,24.39
2018-04-30T11:31:53.826Z,23.88
2018-04-30T11:34:20.330Z,24.56
2018-04-30T11:36:46.749Z,23.85
2018-04-30T11:39:13.130Z,24.84
2018-04-30T11:41:39.648Z,23.83
2018-04-30T11:44:06.172Z,23.24
2018-04-30T11:46:32.602Z,23.79
2018-04-30T11:48:59.210Z,24.30
2018-04-30T11:51:25.609Z,25.41
2018-04-30T11:53:52.779Z,24.82
2018-04-30T11:56:19.433Z,24.11
2018-04-30T11:58:45.903Z,22.62
2018-04-30T12:01:13.948Z,23.04
2018-04-30T12:03:40.385Z,22.95
2018-04-30T12:06:07.142Z,23.37
2018-04-30T12:08:33.565Z,23.42
2018-04-30T12:10:59.999Z,23.18
2018-04-30T12:13:27.075Z,22.29
2018-04-30T12:15:53.588Z,22.78
2018-04-30T12:18:20.027Z,22.69
2018-04-30T12:20:48.168Z,23.00
2018-04-30T12:23:14.572Z,22.10
2018-04-30T12:25:41.717Z,22.58
2018-04-30T12:28:08.943Z,22.25
2018-04-30T12:30:35.761Z,22.17
2018-04-30T12:33:02.232Z,22.22
2018-04-30T12:35:28.654Z,22.25
2018-04-30T12:37:55.048Z,22.17
2018-04-30T12:40:21.476Z,22.02
2018-04-30T12:42:47.911Z,22.32
2018-04-30T12:45:14.312Z,22.11
2018-04-30T12:47:41.461Z,22.08
2018-04-30T12:50:08.670Z,22.11
2018-04-30T12:52:35.022Z,21.87
2018-04-30T12:55:01.502Z,21.62
2018-04-30T12:57:27.897Z,21.24
2018-04-30T12:59:54.277Z,21.39
2018-04-30T13:02:20.675Z,21.35
2018-04-30T13:04:47.936Z,21.11
2018-04-30T13:07:14.347Z,21.27
2018-04-30T13:09:41.091Z,21.56
2018-04-30T13:12:08.202Z,21.70
2018-04-30T13:14:34.831Z,21.66
2018-04-30T13:17:01.200Z,20.79
2018-04-30T13:19:27.879Z,20.50
2018-04-30T13:21:54.263Z,19.16
2018-04-30T13:24:20.689Z,18.41
2018-04-30T13:26:47.379Z,18.51
2018-04-30T13:29:14.503Z,18.45
2018-04-30T13:31:41.745Z,19.30
2018-04-30T13:34:08.949Z,18.45
2018-04-30T13:36:35.478Z,20.13
2018-04-30T13:39:03.548Z,17.92
2018-04-30T13:41:29.989Z,17.17
2018-04-30T13:43:57.409Z,16.02
2018-04-30T13:46:24.175Z,16.26
2018-04-30T13:48:50.559Z,15.96
2018-04-30T13:51:17.898Z,17.51
2018-04-30T13:53:44.721Z,17.81
2018-04-30T13:56:11.335Z,18.43
2018-04-30T13:58:38.018Z,18.78
2018-04-30T14:01:05.267Z,20.49
2018-04-30T14:03:31.937Z,20.58
2018-04-30T14:06:01.609Z,19.00
2018-04-30T14:08:29.738Z,17.05
2018-04-30T14:10:57.253Z,17.56
2018-04-30T14:13:24.537Z,18.20
2018-04-30T14:15:51.142Z,17.95
2018-04-30T14:18:17.476Z,16.20
2018-04-30T14:20:43.847Z,15.98
2018-04-30T14:23:11.035Z,14.86
2018-04-30T14:25:37.405Z,16.78
2018-04-30T14:28:03.845Z,15.00
2018-04-30T14:30:30.461Z,14.38
2018-04-30T14:32:56.838Z,14.88
2018-04-30T14:35:24.031Z,16.25
2018-04-30T14:37:50.494Z,18.89
2018-04-30T14:40:17.777Z,18.96
2018-04-30T14:42:44.215Z,19.44
2018-04-30T14:45:10.600Z,20.21
2018-04-30T14:47:37.067Z,22.22
2018-04-30T14:50:04.207Z,22.96
2018-04-30T14:52:31.520Z,22.09
2018-04-30T14:54:57.975Z,22.81
2018-04-30T14:57:24.484Z,22.15
2018-04-30T14:59:50.974Z,20.06
2018-04-30T15:02:18.130Z,20.67
2018-04-30T15:04:44.818Z,21.84
2018-04-30T15:07:11.237Z,22.20
2018-04-30T15:09:37.761Z,22.42
2018-04-30T15:12:04.215Z,22.61
2018-04-30T15:14:30.664Z,20.78
2018-04-30T15:16:57.112Z,20.12
2018-04-30T15:19:23.527Z,20.29
2018-04-30T15:21:49.931Z,21.66
2018-04-30T15:24:16.717Z,22.68
2018-04-30T15:26:43.165Z,23.04
2018-04-30T15:29:10.367Z,23.40
2018-04-30T15:31:36.754Z,22.71
2018-04-30T15:34:03.885Z,18.79
2018-04-30T15:36:30.990Z,17.59
2018-04-30T15:38:57.393Z,18.08
2018-04-30T15:41:23.935Z,19.88
2018-04-30T15:43:50.383Z,21.34
2018-04-30T15:46:16.763Z,20.87
2018-04-30T15:48:43.297Z,22.87
2018-04-30T15:51:09.716Z,23.90
2018-04-30T15:53:36.177Z,24.09
2018-04-30T15:56:03.394Z,24.19
2018-04-30T15:58:30.355Z,23.73
2018-04-30T16:00:57.551Z,24.33
2018-04-30T16:03:23.990Z,24.73
2018-04-30T16:05:50.433Z,24.76
2018-04-30T16:08:16.831Z,25.08
2018-04-30T16:10:43.961Z,23.92
2018-04-30T16:13:11.204Z,19.12
2018-04-30T16:15:37.630Z,18.47
2018-04-30T16:18:04.507Z,16.01
2018-04-30T16:20:31.866Z,17.02
2018-04-30T16:22:59.053Z,17.44
2018-04-30T16:25:25.510Z,18.20
2018-04-30T16:27:51.925Z,20.94
2018-04-30T16:30:18.415Z,23.51
2018-04-30T16:32:45.570Z,25.37
2018-04-30T16:35:12.816Z,26.39
2018-04-30T16:37:39.964Z,28.04
2018-04-30T16:40:07.249Z,30.05
2018-04-30T16:42:33.961Z,30.58
2018-04-30T16:45:01.171Z,30.77
2018-04-30T16:47:27.538Z,31.69
2018-04-30T16:49:54.779Z,32.13
2018-04-30T16:52:21.267Z,32.32
2018-04-30T16:54:47.638Z,32.49
2018-04-30T16:57:14.861Z,32.87
2018-04-30T16:59:41.361Z,34.06
2018-04-30T17:02:07.751Z,33.51
2018-04-30T17:04:35.393Z,33.47
2018-04-30T17:07:01.859Z,33.47
2018-04-30T17:09:28.390Z,33.47
2018-04-30T17:11:55.530Z,34.58
2018-04-30T17:14:21.966Z,35.04
2018-04-30T17:16:48.376Z,35.04
2018-04-30T17:19:14.909Z,34.16
2018-04-30T17:21:41.340Z,28.72
2018-04-30T17:24:07.853Z,25.71
2018-04-30T17:26:34.339Z,26.44
2018-04-30T17:29:01.009Z,25.95
2018-04-30T17:31:27.819Z,24.64
2018-04-30T17:33:54.252Z,25.59
2018-04-30T17:36:20.768Z,28.22
2018-04-30T17:38:47.125Z,29.39
2018-04-30T17:41:14.446Z,30.56
2018-04-30T17:43:40.871Z,32.13
2018-04-30T17:46:07.237Z,33.56
2018-04-30T17:48:34.492Z,34.70
2018-04-30T17:51:00.931Z,35.92
2018-04-30T17:53:28.213Z,36.97
2018-04-30T17:55:54.565Z,37.60
2018-04-30T17:58:20.979Z,37.65
2018-04-30T18:00:47.414Z,37.08
2018-04-30T18:03:14.541Z,37.04
2018-04-30T18:05:41.001Z,36.84
2018-04-30T18:08:08.206Z,37.48
2018-04-30T18:10:35.398Z,37.56
2018-04-30T18:13:01.786Z,37.54
2018-04-30T18:15:28.990Z,37.78
2018-04-30T18:17:55.473Z,37.86
2018-04-30T18:20:22.699Z,38.65
2018-04-30T18:22:49.213Z,40.50
2018-04-30T18:25:15.825Z,40.56
2018-04-30T18:27:42.346Z,40.94
2018-04-30T18:30:09.514Z,40.54
2018-04-30T18:32:35.929Z,39.82
2018-04-30T18:35:03.270Z,39.83
2018-04-30T18:37:30.685Z,39.96
2018-04-30T18:39:57.076Z,40.20
2018-04-30T18:42:23.501Z,40.19
2018-04-30T18:44:49.974Z,40.02
2018-04-30T18:47:16.571Z,40.16
2018-04-30T18:49:43.724Z,40.34
2018-04-30T18:52:11.087Z,40.79
2018-04-30T18:54:37.742Z,41.06
2018-04-30T18:57:04.327Z,40.88
2018-04-30T18:59:31.657Z,41.37
2018-04-30T19:01:58.139Z,41.92
2018-04-30T19:04:25.887Z,41.39
2018-04-30T19:06:53.981Z,41.88
2018-04-30T19:09:20.523Z,41.80
2018-04-30T19:11:46.926Z,41.47
2018-04-30T19:14:14.247Z,41.41
2018-04-30T19:16:40.738Z,41.32
2018-04-30T19:19:07.222Z,42.10
2018-04-30T19:21:33.856Z,41.85
2018-04-30T19:24:00.288Z,42.26
2018-04-30T19:26:27.079Z,42.68
2018-04-30T19:28:53.496Z,42.47
2018-04-30T19:31:20.913Z,42.64
2018-04-30T19:33:47.297Z,43.21
2018-04-30T19:36:13.745Z,38.69
2018-04-30T19:38:40.276Z,37.47
2018-04-30T19:41:06.913Z,38.80
2018-04-30T19:43:33.268Z,37.28
2018-04-30T19:45:59.878Z,36.76
2018-04-30T19:48:27.011Z,36.95
2018-04-30T19:50:54.182Z,36.78
2018-04-30T19:53:20.612Z,35.65
2018-04-30T19:55:47.048Z,35.07
2018-04-30T19:58:14.409Z,35.43
2018-04-30T20:00:40.885Z,35.80
2018-04-30T20:03:07.716Z,35.41
2018-04-30T20:05:34.362Z,35.51
2018-04-30T20:08:00.993Z,35.78
2018-04-30T20:10:27.436Z,35.50
2018-04-30T20:12:53.855Z,35.69
2018-04-30T20:15:20.709Z,35.85
2018-04-30T20:17:47.462Z,35.94
2018-04-30T20:20:15.511Z,36.18
2018-04-30T20:22:42.039Z,36.34
2018-04-30T20:25:08.505Z,36.09
2018-04-30T20:27:35.162Z,35.98
2018-04-30T20:30:02.306Z,36.12
2018-04-30T20:32:28.726Z,36.00
2018-04-30T20:34:55.388Z,36.03
2018-04-30T20:37:22.515Z,35.86
2018-04-30T20:39:48.970Z,35.97
2018-04-30T20:42:16.367Z,36.37
2018-04-30T20:44:42.847Z,36.45
2018-04-30T20:47:10.001Z,36.98
2018-04-30T20:49:38.188Z,36.96
2018-04-30T20:52:05.374Z,36.74
2018-04-30T20:54:31.927Z,36.82
2018-04-30T20:56:58.537Z,37.16
2018-04-30T20:59:24.976Z,37.35
2018-04-30T21:01:51.690Z,38.06
2018-04-30T21:04:19.014Z,38.55
2018-04-30T21:06:46.234Z,38.27
2018-04-30T21:09:13.783Z,38.24
2018-04-30T21:11:40.234Z,38.22
2018-04-30T21:14:07.324Z,38.24
2018-04-30T21:16:34.550Z,38.20
2018-04-30T21:19:02.118Z,37.89
2018-04-30T21:21:30.364Z,38.07
2018-04-30T21:23:56.720Z,38.39
2018-04-30T21:26:23.088Z,38.75
2018-04-30T21:28:50.565Z,39.56
2018-04-30T21:31:17.028Z,39.69
2018-04-30T21:33:43.477Z,39.99
2018-04-30T21:36:10.758Z,39.91
2018-04-30T21:38:38.285Z,40.19
2018-04-30T21:41:05.350Z,40.42
2018-04-30T21:43:33.491Z,40.89
2018-04-30T21:45:59.935Z,41.03
2018-04-30T21:48:27.744Z,41.21
2018-04-30T21:50:56.050Z,41.70
2018-04-30T21:53:24.163Z,41.54
2018-04-30T21:55:52.081Z,41.34
2018-04-30T21:58:20.120Z,41.28
2018-04-30T22:00:48.416Z,41.76
2018-04-30T22:03:14.871Z,41.45
2018-04-30T22:05:41.244Z,41.49
2018-04-30T22:08:08.431Z,41.54
2018-04-30T22:10:34.831Z,41.89
2018-04-30T22:13:01.978Z,41.55
2018-04-30T22:15:29.460Z,41.92
2018-04-30T22:17:55.857Z,42.02
2018-04-30T22:20:22.265Z,41.92
2018-04-30T22:22:48.643Z,42.12
2018-04-30T22:25:15.826Z,42.13
2018-04-30T22:27:42.618Z,42.00
2018-04-30T22:30:09.006Z,42.27
2018-04-30T22:32:35.613Z,42.47
2018-04-30T22:35:02.717Z,42.91
2018-04-30T22:37:29.134Z,42.76
2018-04-30T22:39:55.537Z,42.48
2018-04-30T22:42:21.937Z,42.56
2018-04-30T22:44:48.596Z,43.15
2018-04-30T22:47:15.001Z,43.11
2018-04-30T22:49:42.186Z,43.47
2018-04-30T22:52:08.541Z,43.61
2018-04-30T22:54:34.945Z,43.96
2018-04-30T22:57:05.059Z,43.95
2018-04-30T22:59:32.182Z,43.79
2018-04-30T23:01:58.629Z,43.71
2018-04-30T23:04:25.766Z,44.04
2018-04-30T23:06:52.214Z,43.74
2018-04-30T23:09:19.413Z,44.00
2018-04-30T23:11:45.833Z,44.36
2018-04-30T23:14:12.556Z,44.20
2018-04-30T23:16:39.439Z,44.23
2018-04-30T23:19:05.841Z,44.35
2018-04-30T23:21:32.318Z,44.23
2018-04-30T23:23:58.696Z,44.51
2018-04-30T23:26:25.162Z,44.43
2018-04-30T23:28:51.610Z,44.78
2018-04-30T23:31:18.017Z,44.87
2018-04-30T23:33:44.421Z,44.94
2018-04-30T23:36:11.524Z,45.08
2018-04-30T23:38:37.891Z,44.89
2018-04-30T23:41:05.120Z,45.09
2018-04-30T23:43:31.894Z,44.85
2018-04-30T23:45:59.014Z,45.28
2018-04-30T23:48:25.424Z,45.44
2018-04-30T23:50:51.848Z,45.32
2018-04-30T23:53:18.233Z,45.36
2018-04-30T23:55:45.373Z,45.39
2018-04-30T23:58:11.865Z,45.25
